createdAt,value
2022-08-17T00:00:43.402Z,12.88
2022-08-17T00:03:19.109Z,12.82
2022-08-17T00:06:12.831Z,12.55
2022-08-17T00:08:56.136Z,12.70
2022-08-17T00:11:26.990Z,13.73
2022-08-17T00:14:01.806Z,14.07
2022-08-17T00:16:51.929Z,14.88
2022-08-17T00:19:26.525Z,14.65
2022-08-17T00:22:32.279Z,15.30
2022-08-17T00:24:47.285Z,16.92
2022-08-17T00:27:16.000Z,14.73
2022-08-17T00:29:46.484Z,14.00
2022-08-17T00:33:11.652Z,14.90
2022-08-17T00:35:10.044Z,14.55
2022-08-17T00:37:38.921Z,17.27
2022-08-17T00:40:11.183Z,16.45
2022-08-17T00:42:40.408Z,14.35
2022-08-17T00:45:11.019Z,14.70
2022-08-17T00:47:39.684Z,13.85
2022-08-17T00:50:12.000Z,13.90
2022-08-17T00:52:46.737Z,14.10
2022-08-17T00:55:15.720Z,14.18
2022-08-17T00:57:51.191Z,14.27
2022-08-17T01:00:27.599Z,13.85
2022-08-17T01:03:07.240Z,14.90
2022-08-17T01:05:42.551Z,14.07
2022-08-17T01:08:14.479Z,16.13
2022-08-17T01:10:59.864Z,15.07
2022-08-17T01:13:40.976Z,15.93
2022-08-17T01:16:36.397Z,15.65
2022-08-17T01:19:17.596Z,13.93
2022-08-17T01:22:08.510Z,15.18
2022-08-17T01:24:40.407Z,14.27
2022-08-17T01:27:10.946Z,14.88
2022-08-17T01:29:41.909Z,14.52
2022-08-17T01:32:10.794Z,15.65
2022-08-17T01:34:43.395Z,14.50
2022-08-17T01:37:14.819Z,14.70
2022-08-17T01:39:48.468Z,16.40
2022-08-17T01:42:22.139Z,15.02
2022-08-17T01:44:57.665Z,14.07
2022-08-17T01:47:26.464Z,14.03
2022-08-17T01:49:58.181Z,15.45
2022-08-17T01:52:26.909Z,14.10
2022-08-17T01:54:56.304Z,14.45
2022-08-17T01:57:24.579Z,13.70
2022-08-17T01:59:53.137Z,15.10
2022-08-17T02:02:31.156Z,15.75
2022-08-17T02:05:00.605Z,14.93
2022-08-17T02:07:29.599Z,13.70
2022-08-17T02:09:58.039Z,15.77
2022-08-17T02:12:39.249Z,14.55
2022-08-17T02:15:10.710Z,16.02
2022-08-17T02:17:41.363Z,14.32
2022-08-17T02:20:11.584Z,15.50
2022-08-17T02:22:45.131Z,15.50
2022-08-17T02:25:19.150Z,17.98
2022-08-17T02:27:52.791Z,14.50
2022-08-17T02:31:00.859Z,14.40
2022-08-17T02:33:10.034Z,16.52
2022-08-17T02:35:39.755Z,14.10
2022-08-17T02:38:08.630Z,14.95
2022-08-17T02:40:38.106Z,16.50
2022-08-17T02:43:07.514Z,13.75
2022-08-17T02:45:36.239Z,15.35
2022-08-17T02:48:05.604Z,13.77
2022-08-17T02:50:34.611Z,14.05
2022-08-17T02:53:04.619Z,14.10
2022-08-17T02:55:41.210Z,14.85
2022-08-17T02:58:11.254Z,15.43
2022-08-17T03:00:43.373Z,15.50
2022-08-17T03:03:14.043Z,16.95
2022-08-17T03:05:42.934Z,15.55
2022-08-17T03:08:13.061Z,14.00
2022-08-17T03:10:43.819Z,15.98
2022-08-17T03:13:15.095Z,15.98
2022-08-17T03:15:48.017Z,15.63
2022-08-17T03:18:24.650Z,15.70
2022-08-17T03:20:56.986Z,14.35
2022-08-17T03:23:26.064Z,14.55
2022-08-17T03:25:56.343Z,14.63
2022-08-17T03:28:25.707Z,15.95
2022-08-17T03:30:54.651Z,15.38
2022-08-17T03:33:23.469Z,15.18
2022-08-17T03:35:52.745Z,17.80
2022-08-17T03:38:21.434Z,17.40
2022-08-17T03:40:57.226Z,16.30
2022-08-17T03:43:32.787Z,16.70
2022-08-17T03:46:34.126Z,16.38
2022-08-17T03:49:24.185Z,16.75
2022-08-17T03:52:12.329Z,17.13
2022-08-17T03:55:01.027Z,17.52
2022-08-17T03:57:30.241Z,17.02
2022-08-17T03:59:58.837Z,17.67
2022-08-17T04:02:33.569Z,17.00
2022-08-17T04:05:02.471Z,16.98
2022-08-17T04:07:32.744Z,19.33
2022-08-17T04:10:01.865Z,17.33
2022-08-17T04:12:45.104Z,15.90
2022-08-17T04:15:13.985Z,16.30
2022-08-17T04:17:44.797Z,17.58
2022-08-17T04:20:15.946Z,17.30
2022-08-17T04:23:04.427Z,17.05
2022-08-17T04:25:36.035Z,18.50
2022-08-17T04:28:05.909Z,18.90
2022-08-17T04:30:45.984Z,16.60
2022-08-17T04:33:21.044Z,17.65
2022-08-17T04:35:52.299Z,17.50
2022-08-17T04:38:23.615Z,17.92
2022-08-17T04:41:11.701Z,18.70
2022-08-17T04:43:41.776Z,20.38
2022-08-17T04:46:16.359Z,23.50
2022-08-17T04:48:47.114Z,35.85
2022-08-17T04:51:26.244Z,34.85
2022-08-17T04:53:58.748Z,25.38
2022-08-17T04:56:28.374Z,24.23
2022-08-17T04:59:00.140Z,25.40
2022-08-17T05:01:31.959Z,21.08
2022-08-17T05:04:33.258Z,19.35
2022-08-17T05:06:55.935Z,19.67
2022-08-17T05:09:24.254Z,22.40
2022-08-17T05:11:52.897Z,17.70
2022-08-17T05:14:32.952Z,21.55
2022-08-17T05:17:07.433Z,18.33
2022-08-17T05:19:39.655Z,18.17
2022-08-17T05:22:08.455Z,18.80
2022-08-17T05:24:38.419Z,17.98
2022-08-17T05:27:08.270Z,17.77
2022-08-17T05:29:37.274Z,17.67
2022-08-17T05:32:39.173Z,19.20
2022-08-17T05:35:01.950Z,19.20
2022-08-17T05:37:30.829Z,18.17
2022-08-17T05:39:59.683Z,19.13
2022-08-17T05:42:28.542Z,18.48
2022-08-17T05:45:00.271Z,23.35
2022-08-17T05:47:29.470Z,17.13
2022-08-17T05:50:00.040Z,17.15
2022-08-17T05:52:39.710Z,18.67
2022-08-17T19:20:03.880Z,31.77
2022-08-17T19:23:07.157Z,30.65
2022-08-17T19:25:41.160Z,30.77
2022-08-17T19:28:42.155Z,28.92
2022-08-17T19:31:29.474Z,30.92
2022-08-17T19:34:01.010Z,30.05
2022-08-17T19:36:57.692Z,29.10
2022-08-17T19:39:41.790Z,29.58
2022-08-17T19:42:19.936Z,29.05
2022-08-17T19:44:57.586Z,29.23
2022-08-17T19:47:53.170Z,30.08
2022-08-17T19:50:58.980Z,28.73
2022-08-17T19:53:54.208Z,27.73
2022-08-17T19:56:43.977Z,29.40
2022-08-17T19:59:16.903Z,28.90
2022-08-17T20:01:51.523Z,29.50
2022-08-17T20:04:44.025Z,28.77
2022-08-17T20:07:23.255Z,29.35
2022-08-17T20:10:03.111Z,30.10
2022-08-17T20:12:38.016Z,29.88
2022-08-17T20:15:17.781Z,28.40
2022-08-17T20:17:48.436Z,33.75
2022-08-17T20:20:25.561Z,29.00
2022-08-17T20:23:12.488Z,29.27
2022-08-17T20:26:05.522Z,30.42
2022-08-17T20:28:36.765Z,30.05
2022-08-17T20:31:43.778Z,28.63
2022-08-17T20:34:33.540Z,26.33
2022-08-17T20:37:15.601Z,24.25
2022-08-17T20:40:09.792Z,23.27
2022-08-17T20:42:40.045Z,23.48
2022-08-17T20:45:26.873Z,22.88
2022-08-17T20:48:27.224Z,17.70
2022-08-17T20:50:59.710Z,19.10
2022-08-17T20:53:49.755Z,20.38
2022-08-17T20:56:43.887Z,16.90
2022-08-17T20:59:21.891Z,16.70
2022-08-17T21:02:18.508Z,15.55
2022-08-17T21:07:42.932Z,16.35
2022-08-17T21:10:19.006Z,15.68
2022-08-17T21:12:53.665Z,14.02
2022-08-17T21:16:01.551Z,14.73
2022-08-17T21:21:32.439Z,14.00
2022-08-17T21:24:20.155Z,12.73
2022-08-17T21:26:56.142Z,15.68
2022-08-17T21:29:32.287Z,16.83
2022-08-17T21:32:02.721Z,16.08
2022-08-17T21:34:34.825Z,15.13
2022-08-17T21:37:23.362Z,16.58
2022-08-17T21:39:55.990Z,14.23
2022-08-17T21:42:32.131Z,17.02
2022-08-17T21:45:22.386Z,13.63
2022-08-17T21:48:08.756Z,12.77
2022-08-17T21:50:38.217Z,13.27
2022-08-17T21:53:07.360Z,11.27
2022-08-17T21:55:37.992Z,11.20
2022-08-17T21:58:19.771Z,13.98
2022-08-17T22:01:13.512Z,11.65
2022-08-17T22:03:42.620Z,15.25
2022-08-17T22:06:56.744Z,10.30
2022-08-17T22:09:27.971Z,14.20
2022-08-17T22:12:01.085Z,13.90
2022-08-17T22:14:52.301Z,14.70
2022-08-17T22:17:28.447Z,13.05
2022-08-17T22:20:07.059Z,11.52
2022-08-17T22:23:00.722Z,11.40
2022-08-17T22:25:31.918Z,11.25
2022-08-17T22:28:04.036Z,11.40
2022-08-17T22:30:38.957Z,10.95
2022-08-17T22:33:41.450Z,14.48
2022-08-17T22:36:29.508Z,12.57
2022-08-17T22:39:23.523Z,12.98
2022-08-17T22:41:56.595Z,12.75
2022-08-17T22:44:32.402Z,15.38
2022-08-17T22:47:31.357Z,12.45
2022-08-17T22:50:03.277Z,13.27
2022-08-17T22:53:01.957Z,12.90
2022-08-17T22:55:51.156Z,15.48
2022-08-17T22:58:41.238Z,13.48
2022-08-17T23:01:31.007Z,14.25
2022-08-17T23:04:08.690Z,15.90
2022-08-17T23:06:39.938Z,16.55
2022-08-17T23:09:09.053Z,16.58
2022-08-17T23:11:48.722Z,13.43
2022-08-17T23:14:21.005Z,16.40
2022-08-17T23:16:51.696Z,16.58
2022-08-17T23:19:22.289Z,16.70
2022-08-17T23:21:53.926Z,18.08
2022-08-17T23:24:25.967Z,20.73
2022-08-17T23:26:57.807Z,16.67
2022-08-17T23:29:30.131Z,16.83
2022-08-17T23:32:02.093Z,20.70
2022-08-17T23:34:31.047Z,17.77
2022-08-17T23:37:03.528Z,19.98
2022-08-17T23:39:32.754Z,15.90
2022-08-17T23:42:05.848Z,15.10
2022-08-17T23:44:36.526Z,16.77
2022-08-17T23:47:05.658Z,13.70
2022-08-17T23:49:34.332Z,15.95
2022-08-17T23:52:08.091Z,13.77
2022-08-17T23:54:45.076Z,13.77
2022-08-17T23:57:17.353Z,14.98
2022-08-17T23:59:46.353Z,13.30
